Time;durP1;ratioP1;P1;durP2;ratioP2;P2;SDS_P1;SDS_P2;PMS_P1;PMS_P2;Temp;Humidity;BMP_temperature;BMP_pressure;BME280_temperature;BME280_humidity;BME280_pressure;Samples;Min_cycle;Max_cycle;Signal;HPM_P1;HPM_P2
2022/04/23 00:01:10;;;;;;;53.13;33.83;;;6.40;99.90;;;;;;5032779;28;20025;-51
2022/04/23 00:03:36;;;;;;;90.28;54.35;;;6.30;99.90;;;;;;5031742;28;20547;-51
2022/04/23 00:06:03;;;;;;;60.90;36.83;;;6.30;99.90;;;;;;5034182;28;20068;-51
2022/04/23 00:08:29;;;;;;;55.17;31.98;;;6.30;99.90;;;;;;5041702;28;20025;-52
2022/04/23 00:10:54;;;;;;;52.30;32.38;;;6.30;99.90;;;;;;5039374;28;20025;-51
2022/04/23 00:13:21;;;;;;;48.35;31.42;;;6.30;99.90;;;;;;5039391;28;20068;-50
2022/04/23 00:15:48;;;;;;;57.00;35.67;;;6.30;99.90;;;;;;5037603;28;20115;-51
2022/04/23 00:18:14;;;;;;;57.38;34.40;;;6.30;99.90;;;;;;5039994;28;20022;-50
2022/04/23 00:20:40;;;;;;;56.10;33.72;;;6.20;99.90;;;;;;5041357;28;20078;-53
2022/04/23 00:23:07;;;;;;;54.70;34.22;;;6.20;99.90;;;;;;5039567;28;20085;-51
2022/04/23 00:25:37;;;;;;;54.03;32.45;;;6.10;99.90;;;;;;5030977;28;20423;-52
2022/04/23 00:28:04;;;;;;;53.15;33.38;;;6.00;99.90;;;;;;5031293;28;20029;-49
2022/04/23 00:30:29;;;;;;;57.83;35.45;;;5.90;99.90;;;;;;5030843;28;20026;-51
2022/04/23 00:33:00;;;;;;;60.13;35.88;;;5.90;99.90;;;;;;5030836;28;20037;-53
2022/04/23 00:35:26;;;;;;;62.95;35.22;;;5.90;99.90;;;;;;5031020;28;20112;-52
2022/04/23 00:37:52;;;;;;;57.90;34.00;;;5.90;99.90;;;;;;5031002;28;20029;-51
2022/04/23 00:40:18;;;;;;;61.45;35.53;;;5.90;99.90;;;;;;5030306;28;20414;-51
2022/04/23 00:42:52;;;;;;;56.17;34.25;;;5.90;99.90;;;;;;5030015;28;20052;-50
2022/04/23 00:45:19;;;;;;;51.95;33.47;;;5.80;99.90;;;;;;5030933;28;20021;-51
2022/04/23 00:47:45;;;;;;;54.70;34.22;;;5.80;99.90;;;;;;5030952;28;20033;-52
2022/04/23 00:50:11;;;;;;;53.88;32.30;;;5.80;99.90;;;;;;5030728;28;20095;-50
2022/04/23 00:52:37;;;;;;;57.95;32.90;;;5.80;99.90;;;;;;5030803;28;20751;-50
2022/04/23 00:55:08;;;;;;;53.70;33.05;;;5.70;99.90;;;;;;5030840;28;20040;-51
2022/04/23 00:57:35;;;;;;;53.92;33.72;;;5.70;99.90;;;;;;5030547;28;20033;-50
2022/04/23 01:00:06;;;;;;;53.60;33.28;;;5.70;99.90;;;;;;5030580;28;20088;-51
2022/04/23 01:02:32;;;;;;;55.22;32.22;;;5.70;99.90;;;;;;5030892;28;20124;-49
2022/04/23 01:04:58;;;;;;;53.13;31.63;;;5.70;99.90;;;;;;5030374;28;20026;-52
2022/04/23 01:07:24;;;;;;;54.42;32.33;;;5.80;99.90;;;;;;5030750;28;20041;-52
2022/04/23 01:09:52;;;;;;;52.00;31.38;;;5.70;99.90;;;;;;5070302;28;20025;-51
2022/04/23 01:12:19;;;;;;;50.50;31.80;;;5.80;99.90;;;;;;5062171;28;20437;-51
2022/04/23 01:15:01;;;;;;;50.92;31.67;;;5.80;99.90;;;;;;5029161;28;20048;-51
2022/04/23 01:17:26;;;;;;;53.55;31.83;;;5.80;99.90;;;;;;5030718;28;20033;-50
2022/04/23 01:19:52;;;;;;;57.88;33.05;;;5.90;99.90;;;;;;5030243;28;20021;-51
2022/04/23 01:22:18;;;;;;;47.75;31.13;;;6.00;99.90;;;;;;5030243;28;20663;-50
2022/04/23 01:24:44;;;;;;;50.70;32.25;;;6.00;99.90;;;;;;5030226;28;20025;-51
2022/04/23 01:27:10;;;;;;;49.45;31.70;;;6.00;99.90;;;;;;5030269;28;20025;-51
2022/04/23 01:29:38;;;;;;;50.80;31.48;;;5.90;99.90;;;;;;5012471;28;20030;-52
2022/04/23 01:32:04;;;;;;;51.20;31.52;;;6.00;99.90;;;;;;5030081;28;20021;-51
2022/04/23 01:34:31;;;;;;;51.00;31.92;;;6.00;99.90;;;;;;5029910;28;20018;-52
2022/04/23 01:36:57;;;;;;;48.13;31.20;;;6.00;99.90;;;;;;5029852;28;20029;-52
2022/04/23 01:39:22;;;;;;;53.35;30.98;;;6.00;99.90;;;;;;5029892;28;20087;-51
2022/04/23 01:41:48;;;;;;;54.13;32.67;;;6.00;99.90;;;;;;5029914;28;20091;-51
2022/04/23 01:44:15;;;;;;;52.25;31.33;;;6.00;99.90;;;;;;5029816;28;20033;-52
2022/04/23 01:46:41;;;;;;;53.03;32.88;;;6.00;99.90;;;;;;5029551;28;20079;-52
2022/04/23 01:49:07;;;;;;;48.22;31.27;;;6.10;99.90;;;;;;5030011;28;20056;-52
2022/04/23 01:51:33;;;;;;;47.88;31.08;;;6.10;99.90;;;;;;5029706;28;20025;-51
2022/04/23 01:53:59;;;;;;;49.88;30.90;;;6.00;99.90;;;;;;5030153;28;20033;-52
2022/04/23 01:56:25;;;;;;;47.95;30.25;;;6.00;99.90;;;;;;5029504;28;20029;-51
2022/04/23 01:58:51;;;;;;;48.47;30.15;;;5.90;99.90;;;;;;5029327;28;20398;-51
2022/04/23 02:01:17;;;;;;;52.67;32.85;;;5.90;99.90;;;;;;5011751;28;20033;-52
2022/04/23 02:03:45;;;;;;;45.38;28.05;;;5.80;99.90;;;;;;5040844;28;20067;-52
2022/04/23 02:06:12;;;;;;;50.80;31.33;;;5.80;99.90;;;;;;5042238;28;20033;-50
2022/04/23 02:08:38;;;;;;;48.10;30.60;;;5.80;99.90;;;;;;5049442;28;20056;-51
2022/04/23 02:11:04;;;;;;;47.35;29.67;;;5.80;99.90;;;;;;5068344;28;20029;-52
2022/04/23 02:13:31;;;;;;;47.90;29.65;;;5.70;99.90;;;;;;5060792;28;20025;-53
2022/04/23 02:15:57;;;;;;;51.88;31.50;;;5.60;99.90;;;;;;5068971;28;20040;-51
2022/04/23 02:18:23;;;;;;;48.85;29.80;;;5.50;99.90;;;;;;5068891;28;20116;-52
2022/04/23 02:20:48;;;;;;;48.42;29.60;;;5.50;99.90;;;;;;5068902;28;20085;-50
2022/04/23 02:23:14;;;;;;;47.38;30.60;;;5.50;99.90;;;;;;5068865;28;20134;-51
2022/04/23 02:25:42;;;;;;;49.85;29.88;;;5.50;99.90;;;;;;5068950;28;20081;-51
2022/04/23 02:28:08;;;;;;;50.42;31.75;;;5.40;99.90;;;;;;5068859;28;20504;-50
2022/04/23 02:30:34;;;;;;;49.30;30.23;;;5.40;99.90;;;;;;5068736;28;20028;-50
2022/04/23 02:33:00;;;;;;;52.30;32.70;;;5.30;99.90;;;;;;5069093;28;20109;-52
2022/04/23 02:35:27;;;;;;;47.70;30.50;;;5.20;99.90;;;;;;5068887;28;20025;-51
2022/04/23 02:37:56;;;;;;;48.17;28.83;;;5.10;99.90;;;;;;5068869;28;20863;-50
2022/04/23 02:40:22;;;;;;;50.55;31.58;;;5.10;99.90;;;;;;5068795;28;20436;-53
2022/04/23 02:42:50;;;;;;;47.90;31.02;;;5.10;99.90;;;;;;5068955;28;20042;-51
2022/04/23 02:45:16;;;;;;;54.33;33.17;;;5.00;99.90;;;;;;5068810;28;20060;-51
2022/04/23 02:47:48;;;;;;;52.88;32.85;;;4.90;99.90;;;;;;5068923;28;20023;-52
2022/04/23 02:50:16;;;;;;;50.20;33.05;;;5.00;99.90;;;;;;5068431;28;20028;-52
2022/04/23 02:52:43;;;;;;;48.30;32.03;;;4.90;99.90;;;;;;5069151;28;20029;-51
2022/04/23 02:55:11;;;;;;;50.80;32.58;;;4.80;99.90;;;;;;5068675;28;20028;-53
2022/04/23 02:57:37;;;;;;;51.70;33.42;;;4.80;99.90;;;;;;5067358;28;20034;-50
2022/04/23 03:00:05;;;;;;;45.60;28.90;;;4.80;99.90;;;;;;5048435;28;20064;-51
2022/04/23 03:02:36;;;;;;;48.25;31.35;;;4.70;99.90;;;;;;5048632;28;20037;-54
2022/04/23 03:05:08;;;;;;;49.75;31.58;;;4.60;99.90;;;;;;5047776;28;20503;-52
2022/04/23 03:07:35;;;;;;;54.78;33.00;;;4.60;99.90;;;;;;5048817;28;20033;-51
2022/04/23 03:10:05;;;;;;;49.47;30.45;;;4.60;99.90;;;;;;5048508;28;20043;-52
2022/04/23 03:12:31;;;;;;;54.17;31.42;;;4.50;99.90;;;;;;5049932;28;20083;-51
2022/04/23 03:14:57;;;;;;;55.33;32.22;;;4.30;99.90;;;;;;5068070;28;20549;-51
2022/04/23 03:17:23;;;;;;;55.92;33.15;;;4.30;99.90;;;;;;5068569;28;20367;-52
2022/04/23 03:19:49;;;;;;;52.35;31.88;;;4.30;99.90;;;;;;5068314;28;20097;-50
2022/04/23 03:22:16;;;;;;;57.78;32.95;;;4.30;99.90;;;;;;5068367;28;20024;-51
2022/04/23 03:24:44;;;;;;;50.40;30.85;;;4.20;99.90;;;;;;5068264;28;20028;-52
2022/04/23 03:27:10;;;;;;;49.83;31.58;;;4.10;99.90;;;;;;5068500;28;20071;-52
2022/04/23 03:29:36;;;;;;;56.10;32.97;;;4.00;99.90;;;;;;5068102;28;20028;-51
2022/04/23 03:32:02;;;;;;;52.45;32.05;;;4.10;99.90;;;;;;5067997;28;20059;-51
2022/04/23 03:34:28;;;;;;;54.53;32.17;;;4.00;99.90;;;;;;5068206;28;20056;-52
2022/04/23 03:36:56;;;;;;;54.60;32.63;;;3.90;99.90;;;;;;5068116;28;20086;-52
2022/04/23 03:39:22;;;;;;;54.17;32.42;;;3.90;99.90;;;;;;5068557;28;20043;-52
2022/04/23 03:41:48;;;;;;;51.55;31.15;;;3.90;99.90;;;;;;5067583;28;20487;-50
2022/04/23 03:44:13;;;;;;;52.45;31.75;;;3.90;99.90;;;;;;5068338;28;20601;-51
2022/04/23 03:46:39;;;;;;;49.85;29.38;;;4.00;99.90;;;;;;5068405;28;20027;-52
2022/04/23 03:49:07;;;;;;;47.22;31.25;;;4.00;99.90;;;;;;5067852;28;20036;-51
2022/04/23 03:51:34;;;;;;;55.58;32.15;;;4.00;99.90;;;;;;5050049;28;20021;-53
2022/04/23 03:54:01;;;;;;;56.47;33.20;;;3.90;99.90;;;;;;5068080;28;20376;-51
2022/04/23 03:56:27;;;;;;;50.03;30.60;;;3.90;99.90;;;;;;5067815;28;20271;-51
2022/04/23 03:58:53;;;;;;;49.90;30.55;;;3.80;99.90;;;;;;5067845;28;20407;-53
2022/04/23 04:01:19;;;;;;;53.58;30.83;;;3.80;99.90;;;;;;5049970;28;20039;-51
2022/04/23 04:03:44;;;;;;;59.60;32.80;;;3.70;99.90;;;;;;5068316;28;20036;-51
2022/04/23 04:06:10;;;;;;;50.78;30.85;;;3.60;99.90;;;;;;5067806;28;20033;-52
2022/04/23 04:08:36;;;;;;;48.58;29.75;;;3.60;99.90;;;;;;5068142;28;20028;-52
2022/04/23 04:11:02;;;;;;;54.67;33.20;;;3.50;99.90;;;;;;5068075;28;20387;-52
2022/04/23 04:13:28;;;;;;;59.45;33.42;;;3.60;99.90;;;;;;5059432;28;20028;-51
2022/04/23 04:15:55;;;;;;;61.95;32.30;;;3.70;99.90;;;;;;5049821;28;20020;-51
2022/04/23 04:18:22;;;;;;;55.88;33.45;;;3.60;99.90;;;;;;5069843;28;20029;-52
2022/04/23 04:20:49;;;;;;;55.38;31.52;;;3.60;99.90;;;;;;5071394;28;20515;-51
2022/04/23 04:23:19;;;;;;;54.40;30.65;;;3.60;99.90;;;;;;5071488;28;20040;-52
2022/04/23 04:25:47;;;;;;;56.28;32.15;;;3.50;99.90;;;;;;5071610;28;20033;-51
2022/04/23 04:28:13;;;;;;;54.53;31.63;;;3.50;99.90;;;;;;5071148;28;20027;-52
2022/04/23 04:33:23;;;;;;;62.72;34.13;;;3.60;99.90;;;;;;5071713;28;20047;-50
2022/04/23 04:35:49;;;;;;;58.08;33.30;;;3.60;99.90;;;;;;5070966;28;20028;-52
2022/04/23 04:38:15;;;;;;;59.33;33.63;;;3.60;99.90;;;;;;5071135;28;20060;-50
2022/04/23 04:40:40;;;;;;;59.55;34.42;;;3.70;99.90;;;;;;5071000;28;20045;-50
2022/04/23 04:43:07;;;;;;;59.03;35.08;;;3.70;99.90;;;;;;5071235;28;20472;-50
2022/04/23 04:45:33;;;;;;;66.97;37.33;;;3.70;99.90;;;;;;5070917;28;20134;-51
2022/04/23 04:47:58;;;;;;;62.17;35.50;;;3.80;99.90;;;;;;5071720;28;20314;-52
2022/04/23 04:50:24;;;;;;;62.10;35.15;;;3.90;99.90;;;;;;5071532;28;20352;-57
2022/04/23 04:52:51;;;;;;;61.28;35.85;;;3.90;99.90;;;;;;5070908;28;20111;-52
2022/04/23 04:55:16;;;;;;;58.45;35.78;;;3.90;99.90;;;;;;5052752;28;20047;-51
2022/04/23 04:57:42;;;;;;;55.67;32.60;;;3.90;99.90;;;;;;5070490;28;20032;-51
2022/04/23 05:00:10;;;;;;;53.03;33.40;;;4.10;99.90;;;;;;5070976;28;20116;-51
2022/04/23 05:02:35;;;;;;;58.00;33.60;;;4.10;99.90;;;;;;5071011;28;20028;-51
2022/04/23 05:05:01;;;;;;;55.38;34.35;;;4.10;99.90;;;;;;5070541;28;20031;-52
2022/04/23 05:07:27;;;;;;;54.05;33.78;;;4.10;99.90;;;;;;5070593;28;20028;-51
2022/04/23 05:09:52;;;;;;;54.58;33.95;;;4.30;99.90;;;;;;5070378;28;20039;-52
2022/04/23 05:12:20;;;;;;;55.55;33.13;;;4.30;99.90;;;;;;5062613;28;20028;-50
2022/04/23 05:14:46;;;;;;;55.17;33.05;;;4.40;99.90;;;;;;5030480;28;20021;-51
2022/04/23 05:17:12;;;;;;;58.33;34.95;;;4.50;99.90;;;;;;5030798;28;20021;-51
2022/04/23 05:19:37;;;;;;;65.75;39.15;;;4.60;99.90;;;;;;5030633;28;20029;-52
2022/04/23 05:22:03;;;;;;;63.25;36.70;;;4.60;99.90;;;;;;5030327;28;20091;-52
2022/04/23 05:24:29;;;;;;;66.40;37.63;;;4.70;99.90;;;;;;5030512;28;20127;-52
2022/04/23 05:26:54;;;;;;;64.03;38.97;;;4.80;99.90;;;;;;5030495;28;20311;-52
2022/04/23 05:29:20;;;;;;;64.05;38.30;;;4.90;99.90;;;;;;5030175;28;20632;-52
2022/04/23 05:31:46;;;;;;;60.33;36.95;;;4.90;99.90;;;;;;5012458;28;20030;-51
2022/04/23 05:34:12;;;;;;;63.42;37.83;;;5.00;99.90;;;;;;5030251;28;20068;-53
2022/04/23 05:36:38;;;;;;;63.17;37.95;;;5.10;99.90;;;;;;5029385;28;20034;-53
2022/04/23 05:39:03;;;;;;;58.83;36.55;;;5.20;99.90;;;;;;5030285;28;20044;-52
2022/04/23 05:41:29;;;;;;;60.33;38.30;;;5.30;99.90;;;;;;5030058;28;20048;-52
2022/04/23 05:43:55;;;;;;;61.95;39.20;;;5.40;99.90;;;;;;5030166;28;20087;-52
2022/04/23 05:46:20;;;;;;;67.13;39.13;;;5.40;99.90;;;;;;5029964;28;20033;-52
2022/04/23 05:48:46;;;;;;;63.13;38.08;;;5.50;99.90;;;;;;5030051;28;20037;-50
2022/04/23 05:51:12;;;;;;;61.13;37.45;;;5.50;99.90;;;;;;5029521;28;20104;-50
2022/04/23 05:53:38;;;;;;;59.10;36.47;;;5.60;99.90;;;;;;5029739;28;20341;-54
2022/04/23 05:56:04;;;;;;;57.47;35.05;;;5.80;99.90;;;;;;5029712;28;20033;-51
2022/04/23 05:58:30;;;;;;;58.13;35.67;;;5.90;99.90;;;;;;5047234;28;20032;-51
2022/04/23 06:00:56;;;;;;;54.17;33.70;;;5.90;99.90;;;;;;5068241;28;20117;-51
2022/04/23 06:03:21;;;;;;;55.78;33.33;;;6.00;99.90;;;;;;5069517;28;20676;-53
2022/04/23 06:05:47;;;;;;;53.13;32.33;;;6.10;99.90;;;;;;5069529;28;20495;-52
2022/04/23 06:08:13;;;;;;;57.22;32.72;;;6.30;99.90;;;;;;5069367;28;20032;-52
2022/04/23 06:10:39;;;;;;;50.97;31.80;;;6.40;99.90;;;;;;5068153;28;20020;-50
2022/04/23 06:13:07;;;;;;;44.55;29.73;;;6.60;99.90;;;;;;5060275;28;20040;-52
2022/04/23 06:15:33;;;;;;;42.75;27.23;;;6.80;99.90;;;;;;5067385;28;20016;-52
2022/04/23 06:17:58;;;;;;;44.08;27.73;;;7.00;99.90;;;;;;5068396;28;20476;-52
2022/04/23 06:20:24;;;;;;;56.38;33.83;;;7.20;99.90;;;;;;5068964;28;20451;-51
2022/04/23 06:22:50;;;;;;;48.60;30.23;;;7.40;99.90;;;;;;5068936;28;20060;-52
2022/04/23 06:25:16;;;;;;;47.55;28.15;;;7.40;99.90;;;;;;5069106;28;20060;-51
2022/04/23 06:27:41;;;;;;;49.78;27.80;;;7.60;99.90;;;;;;5069049;28;20464;-51
2022/04/23 06:30:11;;;;;;;50.25;25.55;;;7.60;99.90;;;;;;5068897;28;20035;-51
2022/04/23 06:32:42;;;;;;;39.17;22.33;;;7.70;99.90;;;;;;5069014;28;20024;-52
2022/04/23 06:35:09;;;;;;;37.33;22.52;;;7.80;99.90;;;;;;5068430;28;20036;-50
2022/04/23 06:37:41;;;;;;;37.38;23.40;;;7.90;99.90;;;;;;5068727;28;20032;-53
2022/04/23 06:40:10;;;;;;;36.80;21.17;;;8.10;99.90;;;;;;5067839;28;20380;-52
2022/04/23 06:42:36;;;;;;;31.35;21.08;;;8.10;99.90;;;;;;5068871;28;20029;-51
2022/04/23 06:45:02;;;;;;;30.05;19.38;;;8.20;99.90;;;;;;5068650;28;20115;-52
2022/04/23 06:47:28;;;;;;;32.92;18.80;;;8.30;99.90;;;;;;5068144;28;20361;-52
2022/04/23 06:49:57;;;;;;;34.85;20.50;;;8.50;99.90;;;;;;5068691;28;20081;-51
2022/04/23 06:52:23;;;;;;;33.85;18.77;;;8.60;99.90;;;;;;5068501;28;20051;-50
2022/04/23 06:54:48;;;;;;;30.00;16.38;;;8.70;99.90;;;;;;5068321;28;20024;-51
2022/04/23 06:57:14;;;;;;;33.42;19.52;;;8.80;99.90;;;;;;5068583;28;20029;-51
2022/04/23 06:59:40;;;;;;;30.58;18.08;;;8.90;99.90;;;;;;5068597;28;20078;-52
2022/04/23 07:02:06;;;;;;;28.25;16.60;;;9.00;99.90;;;;;;5067966;28;20539;-51
2022/04/23 07:04:31;;;;;;;28.88;16.80;;;9.10;99.90;;;;;;5068662;28;20044;-51
2022/04/23 07:06:57;;;;;;;25.30;16.17;;;9.20;99.90;;;;;;5068506;28;20107;-50
2022/04/23 07:09:23;;;;;;;28.17;16.50;;;9.30;99.90;;;;;;5068333;28;20480;-51
2022/04/23 07:11:48;;;;;;;25.65;15.55;;;9.40;99.90;;;;;;5068024;28;20029;-50
2022/04/23 07:14:14;;;;;;;26.15;16.35;;;9.50;99.90;;;;;;5042176;28;20380;-51
2022/04/23 07:16:41;;;;;;;28.48;15.18;;;9.60;99.90;;;;;;5047777;28;20029;-50
2022/04/23 07:19:07;;;;;;;25.57;15.70;;;9.70;99.90;;;;;;5030746;28;20048;-53
2022/04/23 07:21:34;;;;;;;19.13;12.98;;;9.70;99.90;;;;;;5048284;28;20021;-52
2022/04/23 07:24:05;;;;;;;24.67;14.18;;;9.80;99.90;;;;;;5048304;28;20083;-53
2022/04/23 07:26:31;;;;;;;26.33;14.45;;;10.00;99.90;;;;;;5048216;28;20111;-51
2022/04/23 07:28:57;;;;;;;18.35;10.38;;;10.10;99.90;;;;;;5048422;28;20057;-52
2022/04/23 07:31:24;;;;;;;17.42;9.85;;;10.20;99.90;;;;;;5048418;28;20025;-54
2022/04/23 07:39:18;;;;;;;14.52;7.65;;;10.50;99.90;;;;;;5042299;28;20071;-50
2022/04/23 07:41:44;;;;;;;11.90;7.60;;;10.70;99.90;;;;;;5037371;28;20071;-54
2022/04/23 07:44:09;;;;;;;12.43;7.78;;;10.80;99.90;;;;;;5037100;28;20170;-51
2022/04/23 07:46:35;;;;;;;14.00;7.88;;;11.10;99.90;;;;;;5036802;28;20045;-52
2022/04/23 07:49:01;;;;;;;11.85;7.70;;;11.10;99.90;;;;;;5035584;28;20602;-52
2022/04/23 07:51:27;;;;;;;11.63;7.05;;;11.20;99.90;;;;;;5036370;28;20087;-50
2022/04/23 07:53:56;;;;;;;10.40;7.03;;;11.30;99.90;;;;;;5040599;28;20540;-53
2022/04/23 07:56:22;;;;;;;13.18;7.13;;;11.30;99.90;;;;;;5040894;28;20156;-51
2022/04/23 07:58:48;;;;;;;11.35;6.80;;;11.40;99.90;;;;;;5043661;28;20071;-53
2022/04/23 08:01:14;;;;;;;10.00;6.75;;;11.50;99.90;;;;;;5022422;28;20029;-50
2022/04/23 08:03:41;;;;;;;9.55;6.13;;;11.60;99.90;;;;;;5039745;28;20129;-51
2022/04/23 08:06:07;;;;;;;;;;;11.70;99.90;;;;;;5039546;28;20026;-53
2022/04/23 08:08:33;;;;;;;12.25;6.93;;;11.70;99.90;;;;;;5040496;28;19958;-52
2022/04/23 08:10:59;;;;;;;12.40;6.20;;;11.80;99.90;;;;;;5040371;28;20358;-51
2022/04/23 08:13:24;;;;;;;10.30;6.32;;;11.90;99.90;;;;;;5041124;28;20021;-51
2022/04/23 08:15:50;;;;;;;9.13;5.85;;;11.90;99.90;;;;;;5040461;28;20460;-53
2022/04/23 08:18:16;;;;;;;9.90;6.03;;;12.10;99.90;;;;;;5040179;28;20021;-52
2022/04/23 08:20:42;;;;;;;10.82;6.10;;;12.20;99.90;;;;;;5038648;28;20033;-53
2022/04/23 08:23:08;;;;;;;8.27;5.82;;;12.20;99.90;;;;;;5040830;28;20036;-53
2022/04/23 08:25:34;;;;;;;8.57;5.63;;;12.30;99.90;;;;;;5039573;28;20123;-51
2022/04/23 08:30:44;;;;;;;11.38;4.75;;;12.30;99.90;;;;;;5040890;28;20079;-51
2022/04/23 08:33:10;;;;;;;9.85;4.72;;;12.50;99.90;;;;;;5036235;28;20033;-51
2022/04/23 08:35:37;;;;;;;7.60;4.55;;;12.50;99.90;;;;;;5039408;28;20028;-50
2022/04/23 08:38:04;;;;;;;7.20;4.20;;;12.60;99.90;;;;;;5022505;28;20031;-52
2022/04/23 08:40:35;;;;;;;6.57;4.45;;;12.60;99.90;;;;;;5038654;28;20038;-51
2022/04/23 08:43:02;;;;;;;6.68;4.10;;;12.80;99.90;;;;;;5038689;28;20033;-52
2022/04/23 08:45:29;;;;;;;7.15;4.75;;;13.00;99.90;;;;;;5040081;28;20021;-51
2022/04/23 08:47:58;;;;;;;8.07;5.13;;;13.00;99.90;;;;;;5039538;28;20021;-52
2022/04/23 08:50:25;;;;;;;6.07;3.85;;;13.10;99.90;;;;;;5038097;28;20029;-50
2022/04/23 08:52:55;;;;;;;5.05;3.35;;;13.20;99.90;;;;;;5039995;28;20091;-51
2022/04/23 08:55:21;;;;;;;7.70;4.88;;;13.50;99.90;;;;;;5039725;28;20042;-52
2022/04/23 08:57:47;;;;;;;7.88;4.78;;;13.50;99.90;;;;;;5042736;28;20039;-53
2022/04/23 09:00:15;;;;;;;8.07;5.00;;;13.50;99.90;;;;;;5041708;28;20026;-52
2022/04/23 09:02:42;;;;;;;8.05;5.18;;;13.70;99.90;;;;;;5039663;28;20032;-51
2022/04/23 09:05:11;;;;;;;7.25;4.70;;;13.80;99.40;;;;;;5037326;28;20033;-51
2022/04/23 09:07:37;;;;;;;9.10;4.50;;;13.90;99.90;;;;;;5038190;28;20030;-51
2022/04/23 09:10:03;;;;;;;7.32;4.95;;;13.90;97.20;;;;;;5039589;28;20025;-53
2022/04/23 09:12:29;;;;;;;7.90;5.05;;;14.10;99.60;;;;;;5021934;28;20156;-51
2022/04/23 09:23:39;;;;;;;7.45;4.70;;;14.40;99.90;;;;;;5039716;28;20107;-51
2022/04/23 09:23:40;;;;;;;220.93;32.30;;;14.50;91.50;;;;;;5031397;28;20083;-52
2022/04/23 09:26:28;;;;;;;22.15;8.98;;;14.40;94.30;;;;;;5038124;28;20025;-51
2022/04/23 09:28:57;;;;;;;12.80;6.47;;;14.30;92.00;;;;;;5039551;28;20026;-51
2022/04/23 09:31:24;;;;;;;134.98;18.83;;;14.20;93.80;;;;;;5040350;28;20037;-52
2022/04/23 09:33:51;;;;;;;357.58;48.05;;;14.10;93.60;;;;;;5029509;28;20028;-52
2022/04/23 09:36:18;;;;;;;46.45;10.07;;;14.00;92.10;;;;;;5039454;28;20082;-53
2022/04/23 09:38:43;;;;;;;10.68;5.47;;;14.30;94.00;;;;;;5038919;28;20031;-51
2022/04/23 09:41:21;;;;;;;11.55;6.30;;;14.70;98.60;;;;;;5037108;28;20044;-52
2022/04/23 09:44:03;;;;;;;13.98;6.47;;;15.10;93.70;;;;;;5038891;28;20040;-51
2022/04/23 09:46:45;;;;;;;11.50;5.47;;;15.30;92.10;;;;;;5020140;28;20033;-51
2022/04/23 09:49:12;;;;;;;9.68;6.15;;;15.70;93.50;;;;;;5037863;28;20030;-51
2022/04/23 09:51:38;;;;;;;14.63;6.53;;;15.90;91.40;;;;;;5033602;28;20026;-52
2022/04/23 09:54:04;;;;;;;10.40;6.13;;;16.00;86.80;;;;;;5039283;28;20079;-53
2022/04/23 09:56:31;;;;;;;9.07;6.10;;;15.90;87.20;;;;;;5037821;28;20029;-53
2022/04/23 09:58:56;;;;;;;8.48;5.63;;;15.70;86.10;;;;;;5040209;28;20021;-51
2022/04/23 10:01:24;;;;;;;8.48;6.13;;;15.90;86.30;;;;;;5046136;28;20945;-52
2022/04/23 10:03:53;;;;;;;;;;;15.70;86.30;;;;;;5036658;28;20806;-52
2022/04/23 10:06:21;;;;;;;9.82;5.78;;;15.40;84.10;;;;;;5037436;28;19905;-51
2022/04/23 10:08:53;;;;;;;10.70;6.00;;;15.30;85.30;;;;;;5037040;28;20017;-55
2022/04/23 10:11:25;;;;;;;8.10;5.95;;;15.60;84.80;;;;;;5037456;28;20033;-52
2022/04/23 10:14:13;;;;;;;8.85;5.00;;;15.80;87.20;;;;;;5036707;28;20762;-52
2022/04/23 10:16:39;;;;;;;12.18;5.85;;;16.40;82.90;;;;;;5037467;28;20497;-53
2022/04/23 10:19:07;;;;;;;8.88;5.07;;;16.60;85.70;;;;;;5036837;28;20485;-52
2022/04/23 10:21:42;;;;;;;8.77;5.25;;;17.10;86.40;;;;;;5036332;28;20090;-53
2022/04/23 10:24:16;;;;;;;7.13;5.28;;;17.10;78.50;;;;;;5037888;28;20025;-50
2022/04/23 10:26:57;;;;;;;7.57;5.38;;;17.20;76.70;;;;;;5036856;28;20507;-51
2022/04/23 10:29:25;;;;;;;8.68;6.13;;;17.10;74.90;;;;;;5036999;28;20029;-52
2022/04/23 10:32:09;;;;;;;8.10;6.03;;;16.90;77.10;;;;;;5036075;28;20033;-51
2022/04/23 10:34:35;;;;;;;7.30;5.55;;;16.60;77.30;;;;;;5038943;28;20504;-51
2022/04/23 10:37:20;;;;;;;8.68;5.55;;;16.40;80.10;;;;;;5035859;28;20029;-52
2022/04/23 10:39:46;;;;;;;9.00;5.90;;;16.80;84.60;;;;;;5035331;28;20115;-51
2022/04/23 10:42:15;;;;;;;10.02;5.68;;;16.80;78.30;;;;;;5039284;28;20099;-51
2022/04/23 10:44:42;;;;;;;10.27;5.63;;;17.10;83.80;;;;;;5045132;28;20488;-51
2022/04/23 10:47:32;;;;;;;9.38;5.45;;;17.20;75.90;;;;;;5029619;28;20074;-51
2022/04/23 10:50:15;;;;;;;8.45;5.72;;;17.50;79.40;;;;;;5048180;28;20053;-51
2022/04/23 10:52:41;;;;;;;6.38;4.88;;;17.60;76.40;;;;;;5048058;28;20114;-51
2022/04/23 10:55:08;;;;;;;14.10;6.53;;;17.80;75.50;;;;;;5021635;28;20047;-50
2022/04/23 10:57:34;;;;;;;7.60;5.07;;;17.80;72.30;;;;;;5038756;28;20041;-51
2022/04/23 11:00:20;;;;;;;8.93;5.60;;;17.50;71.50;;;;;;5038909;28;20028;-49
2022/04/23 11:02:56;;;;;;;11.07;5.95;;;17.40;72.70;;;;;;5035580;28;20028;-52
2022/04/23 11:13:59;;;;;;;6.93;5.10;;;16.10;77.40;;;;;;5045545;28;20491;-50
2022/04/23 11:16:26;;;;;;;;;;;16.00;77.70;;;;;;5044376;28;20036;-51
2022/04/23 11:18:52;;;;;;;8.63;5.95;;;15.90;76.60;;;;;;5048374;28;19909;-52
2022/04/23 11:21:23;;;;;;;9.63;6.00;;;15.70;76.00;;;;;;5047969;28;20595;-52
2022/04/23 11:23:49;;;;;;;7.88;5.53;;;15.70;76.90;;;;;;5030650;28;20082;-50
2022/04/23 11:26:17;;;;;;;9.82;5.53;;;15.90;77.10;;;;;;5045240;28;20053;-52
2022/04/23 11:28:45;;;;;;;9.10;5.68;;;16.20;76.90;;;;;;5034392;28;20032;-51
2022/04/23 11:31:16;;;;;;;6.88;4.97;;;16.60;78.10;;;;;;5052033;28;20028;-50
2022/04/23 11:33:54;;;;;;;10.70;5.07;;;16.70;76.30;;;;;;5047537;28;20021;-52
2022/04/23 11:36:25;;;;;;;7.20;5.20;;;16.90;75.20;;;;;;5041706;28;20056;-52
2022/04/23 11:38:51;;;;;;;15.25;5.05;;;17.00;76.20;;;;;;5040794;28;20021;-50
2022/04/23 11:41:36;;;;;;;5.72;4.72;;;17.00;72.30;;;;;;5054697;28;20412;-51
2022/04/23 11:47:09;;;;;;;9.10;5.25;;;16.20;75.70;;;;;;5039519;28;20495;-55
2022/04/23 11:49:35;;;;;;;6.28;4.75;;;16.20;76.10;;;;;;5040839;28;20033;-52
2022/04/23 11:52:14;;;;;;;7.38;5.18;;;16.00;74.20;;;;;;5041385;28;20111;-52
2022/04/23 11:54:45;;;;;;;7.05;5.20;;;16.00;75.80;;;;;;5024677;28;20083;-52
2022/04/23 11:57:17;;;;;;;7.15;4.90;;;16.30;75.40;;;;;;5039391;28;20036;-50
2022/04/23 11:59:45;;;;;;;6.13;4.88;;;16.60;77.50;;;;;;5041562;28;20027;-51
2022/04/23 12:02:24;;;;;;;7.15;5.45;;;16.70;75.90;;;;;;5037473;28;20064;-52
2022/04/23 12:04:52;;;;;;;6.85;4.70;;;17.00;74.80;;;;;;5041638;28;20118;-53
2022/04/23 12:07:19;;;;;;;6.28;4.95;;;17.00;72.50;;;;;;5021056;28;20018;-51
2022/04/23 12:09:55;;;;;;;7.25;4.60;;;16.90;74.60;;;;;;5040307;28;20507;-51
2022/04/23 12:12:25;;;;;;;6.25;4.55;;;16.90;73.30;;;;;;5041810;28;20067;-52
2022/04/23 12:15:19;;;;;;;9.75;4.60;;;16.90;74.00;;;;;;5040973;28;20044;-52
2022/04/23 12:17:54;;;;;;;7.55;5.05;;;16.90;71.80;;;;;;5037814;28;20033;-51
2022/04/23 12:20:22;;;;;;;7.22;4.88;;;17.00;71.40;;;;;;5038926;28;20530;-51
2022/04/23 12:22:58;;;;;;;6.90;5.10;;;17.00;73.00;;;;;;5039690;28;20032;-52
2022/04/23 12:25:25;;;;;;;8.55;5.07;;;17.20;72.40;;;;;;5039898;28;20136;-53
2022/04/23 12:42:10;;;;;;;5.93;4.55;;;17.20;70.70;;;;;;5038618;28;20308;-51
2022/04/23 12:44:39;;;;;;;7.30;4.47;;;16.90;71.40;;;;;;5044571;28;20029;-51
2022/04/23 12:47:07;;;;;;;6.57;4.40;;;16.70;71.00;;;;;;5050740;28;20489;-52
2022/04/23 12:49:52;;;;;;;8.27;4.75;;;16.50;71.50;;;;;;5050958;28;20021;-51
2022/04/23 12:52:21;;;;;;;6.50;4.53;;;16.40;71.00;;;;;;5050831;28;20021;-51
2022/04/23 12:55:38;;;;;;;7.25;4.70;;;16.60;73.30;;;;;;5032449;28;20025;-52
2022/04/23 12:58:04;;;;;;;8.93;4.82;;;17.10;70.00;;;;;;5022014;28;20060;-51
2022/04/23 13:00:33;;;;;;;11.98;4.90;;;17.60;71.80;;;;;;5070236;28;20467;-51
2022/04/23 13:03:07;;;;;;;6.25;4.47;;;18.00;69.10;;;;;;5070469;28;20085;-50
2022/04/23 13:05:32;;;;;;;9.05;5.00;;;18.10;68.20;;;;;;5070628;28;20479;-51
2022/04/23 13:10:43;;;;;;;6.60;4.85;;;17.60;67.80;;;;;;5067926;28;20109;-51
2022/04/23 13:13:09;;;;;;;6.03;4.22;;;17.40;67.30;;;;;;5062144;28;20063;-52
2022/04/23 13:15:35;;;;;;;6.50;4.53;;;17.60;67.80;;;;;;5070099;28;20392;-51
2022/04/23 13:18:05;;;;;;;7.53;5.15;;;17.90;68.00;;;;;;5070484;28;20131;-51
2022/04/23 13:20:31;;;;;;;11.63;5.00;;;17.90;67.40;;;;;;5070365;28;20025;-51
2022/04/23 13:22:59;;;;;;;7.43;4.40;;;18.50;68.00;;;;;;5070317;28;20059;-52
2022/04/23 13:25:25;;;;;;;6.32;4.63;;;19.10;66.10;;;;;;5064190;28;20491;-51
2022/04/23 13:27:51;;;;;;;6.90;4.32;;;19.40;64.90;;;;;;5030234;28;20496;-52
2022/04/23 13:30:17;;;;;;;7.10;4.97;;;19.20;60.70;;;;;;5012300;28;20029;-52